Decoding for American and Canadian METARs and TAFs is not fully implemented.

Could not understand the following METAR

CWSA 201700Z AUTO 26019G25KT 9SM OVC024 01/M04 A2975 RMK SLP076

TAF for Sable Island

TAF CWSA 201339Z 2014/2024 27020G30KT P6SM OVC030 TEMPO 2014/2019 P6SM -SN OVC020 FM201900 27018G28KT P6SM OVC025 TEMPO 2019/2024 OVC020 RMK FCST BASED ON AUTO OBS. NXT FCST BY 202000Z
Report created 20. mar 14:39

between 20. mar 15:00 - 20. mar 01:00

wind 20 knots from W (270°) with gusts up to 30 knots
Sable Island in Canada at 4m

Latest 5 airports